Time;durP1;ratioP1;P1;durP2;ratioP2;P2;SDS_P1;SDS_P2;PMS_P1;PMS_P2;Temp;Humidity;BMP_temperature;BMP_pressure;BME280_temperature;BME280_humidity;BME280_pressure;Samples;Min_cycle;Max_cycle;Signal;HPM_P1;HPM_P2
2021/06/08 00:01:27;;;;;;;24.70;15.95;;;18.50;99.90;;;;;;5034571;28;20232;-76
2021/06/08 00:03:53;;;;;;;23.48;16.45;;;18.50;99.90;;;;;;5035047;28;20205;-75
2021/06/08 00:06:20;;;;;;;24.27;16.17;;;18.60;99.90;;;;;;5035075;28;20209;-75
2021/06/08 00:08:46;;;;;;;21.30;15.10;;;18.70;99.90;;;;;;5035000;28;20251;-74
2021/06/08 00:11:14;;;;;;;24.25;14.70;;;18.70;99.90;;;;;;5034716;28;20293;-76
2021/06/08 00:13:40;;;;;;;19.97;13.53;;;18.70;99.90;;;;;;5035047;28;20231;-76
2021/06/08 00:16:07;;;;;;;23.30;14.63;;;18.70;99.90;;;;;;5035298;28;20554;-76
2021/06/08 00:18:34;;;;;;;20.88;15.18;;;18.70;99.90;;;;;;5035058;28;20290;-76
2021/06/08 00:21:01;;;;;;;23.08;14.43;;;18.70;99.90;;;;;;5034442;28;20224;-75
2021/06/08 00:23:27;;;;;;;23.52;15.18;;;18.70;99.90;;;;;;5034712;28;20232;-76
2021/06/08 00:25:54;;;;;;;22.20;14.75;;;18.50;99.90;;;;;;5034860;28;20254;-76
2021/06/08 00:28:20;;;;;;;24.55;15.25;;;18.60;99.90;;;;;;5034456;28;20685;-75
2021/06/08 00:30:48;;;;;;;22.40;14.52;;;18.70;99.90;;;;;;5034437;28;20227;-74
2021/06/08 00:33:15;;;;;;;24.13;16.23;;;18.70;99.90;;;;;;5034580;28;20597;-75
2021/06/08 00:35:42;;;;;;;23.27;14.70;;;18.70;99.90;;;;;;5034510;28;20232;-76
2021/06/08 00:38:09;;;;;;;24.77;15.70;;;18.70;99.90;;;;;;5034255;28;20205;-76
2021/06/08 00:40:35;;;;;;;21.20;14.13;;;18.70;99.90;;;;;;5035252;28;20220;-78
2021/06/08 00:43:01;;;;;;;23.38;14.10;;;18.70;99.90;;;;;;5037992;28;20293;-77
2021/06/08 00:45:28;;;;;;;21.73;14.90;;;18.70;99.90;;;;;;5043373;28;20667;-77
2021/06/08 00:47:54;;;;;;;24.42;14.52;;;18.70;99.90;;;;;;5038400;28;20271;-77
2021/06/08 00:50:20;;;;;;;20.35;15.18;;;18.80;99.90;;;;;;5040743;28;20230;-77
2021/06/08 00:52:51;;;;;;;21.52;14.57;;;18.80;99.90;;;;;;5038290;28;20271;-78
2021/06/08 00:55:18;;;;;;;20.42;13.02;;;18.70;99.90;;;;;;5036453;28;20200;-77
2021/06/08 00:57:44;;;;;;;22.05;14.57;;;18.70;99.90;;;;;;5035600;28;20294;-77
2021/06/08 01:00:12;;;;;;;25.00;13.93;;;18.70;99.90;;;;;;5033925;28;20228;-76
2021/06/08 01:02:38;;;;;;;21.33;14.60;;;18.70;99.90;;;;;;5033698;28;20471;-76
2021/06/08 01:05:06;;;;;;;21.73;14.27;;;18.70;99.90;;;;;;5034145;28;20637;-76
2021/06/08 01:07:33;;;;;;;19.05;14.98;;;18.70;99.90;;;;;;5033835;28;20208;-76
2021/06/08 01:10:03;;;;;;;21.00;14.45;;;18.70;99.90;;;;;;5033512;28;20200;-76
2021/06/08 01:12:30;;;;;;;25.30;15.23;;;18.70;99.90;;;;;;5034031;28;20259;-76
2021/06/08 01:14:57;;;;;;;22.52;15.13;;;18.60;99.90;;;;;;5035880;28;20678;-77
2021/06/08 01:17:23;;;;;;;27.73;16.23;;;18.70;99.90;;;;;;5034571;28;20761;-73
2021/06/08 01:19:55;;;;;;;25.02;15.45;;;18.70;99.90;;;;;;5033399;28;20220;-73
2021/06/08 01:22:23;;;;;;;23.42;14.95;;;18.70;99.90;;;;;;5033362;28;20316;-74
2021/06/08 01:24:51;;;;;;;22.90;15.27;;;18.80;99.90;;;;;;5033528;28;20204;-74
2021/06/08 01:27:18;;;;;;;23.15;14.10;;;18.80;99.90;;;;;;5033280;28;20303;-74
2021/06/08 01:29:45;;;;;;;22.85;15.43;;;18.70;99.90;;;;;;5033502;28;20215;-73
2021/06/08 01:32:12;;;;;;;23.00;14.95;;;18.70;99.90;;;;;;5032734;28;20226;-73
2021/06/08 01:34:39;;;;;;;25.17;16.20;;;18.60;99.90;;;;;;5033551;28;20291;-73
2021/06/08 01:37:08;;;;;;;24.02;14.98;;;18.50;99.90;;;;;;5033060;28;20208;-73
2021/06/08 01:39:37;;;;;;;24.15;14.55;;;18.40;99.90;;;;;;5032921;28;20239;-73
2021/06/08 01:42:04;;;;;;;24.65;15.68;;;18.50;99.90;;;;;;5032453;28;20236;-74
2021/06/08 01:44:31;;;;;;;23.40;15.25;;;18.50;99.90;;;;;;5033437;28;20295;-73
2021/06/08 01:46:58;;;;;;;24.02;14.80;;;18.60;99.90;;;;;;5032934;28;20254;-74
2021/06/08 01:49:24;;;;;;;23.85;14.93;;;18.60;99.90;;;;;;5033128;28;20295;-73
2021/06/08 01:51:58;;;;;;;26.50;15.77;;;18.50;99.90;;;;;;5032498;28;20227;-74
2021/06/08 01:54:30;;;;;;;24.45;14.50;;;18.60;99.90;;;;;;5033260;28;20204;-74
2021/06/08 01:57:06;;;;;;;24.33;15.13;;;18.50;99.90;;;;;;5032961;28;20203;-75
2021/06/08 01:59:43;;;;;;;26.95;16.50;;;18.50;99.90;;;;;;5032213;28;20204;-75
2021/06/08 02:02:19;;;;;;;23.30;15.80;;;18.50;99.90;;;;;;5032541;28;20247;-76
2021/06/08 02:04:52;;;;;;;21.58;15.55;;;18.40;99.90;;;;;;5034766;28;20250;-78
2021/06/08 02:07:32;;;;;;;24.83;16.25;;;18.50;99.90;;;;;;5038006;28;20574;-77
2021/06/08 02:10:02;;;;;;;22.73;14.20;;;18.60;99.90;;;;;;5033585;28;20200;-78
2021/06/08 02:12:30;;;;;;;22.45;14.25;;;18.60;99.90;;;;;;5033762;28;20346;-73
2021/06/08 02:15:05;;;;;;;21.88;13.43;;;18.50;99.90;;;;;;5033916;28;20261;-73
2021/06/08 02:17:38;;;;;;;23.08;15.02;;;18.50;99.90;;;;;;5034147;28;20284;-74
2021/06/08 02:20:08;;;;;;;25.90;15.20;;;18.50;99.90;;;;;;5034077;28;20315;-73
2021/06/08 02:22:39;;;;;;;21.33;14.95;;;18.50;99.90;;;;;;5033916;28;20234;-73
2021/06/08 02:25:07;;;;;;;22.00;14.80;;;18.50;99.90;;;;;;5033692;28;20661;-73
2021/06/08 02:27:35;;;;;;;20.35;13.63;;;18.60;99.90;;;;;;5033986;28;20204;-73
2021/06/08 02:30:01;;;;;;;21.42;14.10;;;18.60;99.90;;;;;;5033595;28;20678;-73
2021/06/08 02:32:30;;;;;;;22.40;14.57;;;18.60;99.90;;;;;;5033540;28;20236;-73
2021/06/08 02:34:59;;;;;;;21.48;14.60;;;18.70;99.90;;;;;;5034226;28;20209;-73
2021/06/08 02:37:27;;;;;;;20.37;14.30;;;18.70;99.90;;;;;;5034021;28;20209;-73
2021/06/08 02:39:54;;;;;;;22.75;15.75;;;18.70;99.90;;;;;;5033509;28;20454;-73
2021/06/08 02:42:22;;;;;;;24.38;15.77;;;18.70;99.90;;;;;;5033317;28;20234;-73
2021/06/08 02:44:51;;;;;;;20.80;14.63;;;18.70;99.90;;;;;;5033746;28;20215;-73
2021/06/08 02:47:20;;;;;;;23.52;14.90;;;18.60;99.90;;;;;;5033901;28;20254;-73
2021/06/08 02:49:47;;;;;;;24.40;15.80;;;18.70;99.90;;;;;;5034044;28;20243;-72
2021/06/08 02:52:16;;;;;;;22.92;14.93;;;18.60;99.90;;;;;;5033170;28;20220;-73
2021/06/08 02:54:42;;;;;;;27.80;17.25;;;18.60;99.90;;;;;;5033751;28;20290;-73
2021/06/08 02:57:10;;;;;;;25.10;15.32;;;18.60;99.90;;;;;;5033713;28;20200;-73
2021/06/08 02:59:38;;;;;;;23.67;15.85;;;18.60;99.90;;;;;;5033808;28;20554;-73
2021/06/08 03:02:10;;;;;;;25.92;15.95;;;18.60;99.90;;;;;;5033560;28;20235;-73
2021/06/08 03:04:44;;;;;;;24.13;14.77;;;18.60;99.90;;;;;;5034586;28;20198;-73
2021/06/08 03:07:12;;;;;;;29.88;16.58;;;18.60;99.90;;;;;;5033623;28;20861;-73
2021/06/08 03:09:41;;;;;;;24.02;15.15;;;18.60;99.90;;;;;;5033432;28;20299;-73
2021/06/08 03:12:12;;;;;;;22.70;14.77;;;18.60;99.90;;;;;;5037072;28;20224;-73
2021/06/08 03:14:40;;;;;;;27.52;15.65;;;18.70;99.90;;;;;;5037850;28;20641;-73
2021/06/08 03:17:13;;;;;;;24.02;14.65;;;18.70;99.90;;;;;;5037924;28;20253;-73
2021/06/08 03:19:41;;;;;;;25.85;15.30;;;18.60;99.90;;;;;;5037865;28;20211;-73
2021/06/08 03:22:11;;;;;;;22.02;14.95;;;18.60;99.90;;;;;;5036928;28;20273;-73
2021/06/08 03:24:41;;;;;;;23.70;16.40;;;18.50;99.90;;;;;;5037614;28;20602;-73
2021/06/08 03:27:08;;;;;;;17.83;13.30;;;18.50;99.90;;;;;;5037249;28;20211;-73
2021/06/08 03:29:36;;;;;;;22.45;13.90;;;18.60;99.90;;;;;;5037310;28;20443;-73
2021/06/08 03:32:05;;;;;;;22.83;14.07;;;18.60;99.90;;;;;;5036857;28;20228;-73
2021/06/08 03:34:35;;;;;;;19.65;13.93;;;18.40;99.90;;;;;;5037232;28;20223;-73
2021/06/08 03:37:04;;;;;;;22.02;14.30;;;18.30;99.90;;;;;;5037334;28;20208;-73
2021/06/08 03:39:32;;;;;;;23.15;14.10;;;18.10;99.90;;;;;;5037305;28;20211;-73
2021/06/08 03:41:58;;;;;;;22.25;12.55;;;18.00;99.90;;;;;;5036324;28;20234;-73
2021/06/08 03:44:27;;;;;;;22.25;13.55;;;18.00;99.90;;;;;;5036940;28;20295;-73
2021/06/08 03:46:54;;;;;;;21.27;13.65;;;18.10;99.90;;;;;;5036528;28;20208;-73
2021/06/08 03:49:21;;;;;;;21.27;14.38;;;18.00;99.90;;;;;;5036731;28;20204;-73
2021/06/08 03:51:51;;;;;;;26.65;14.70;;;17.90;99.90;;;;;;5036512;28;20291;-73
2021/06/08 03:54:18;;;;;;;26.13;14.35;;;17.90;99.90;;;;;;5036717;28;20295;-73
2021/06/08 03:56:47;;;;;;;22.17;13.93;;;18.00;99.90;;;;;;5036634;28;20200;-73
2021/06/08 03:59:14;;;;;;;25.80;15.05;;;18.00;99.90;;;;;;5036692;28;20246;-73
2021/06/08 04:01:42;;;;;;;23.27;15.10;;;18.00;99.90;;;;;;5036173;28;20228;-73
2021/06/08 04:04:09;;;;;;;18.98;12.85;;;18.00;99.90;;;;;;5036475;28;20206;-73
2021/06/08 04:06:36;;;;;;;20.73;14.07;;;18.00;99.90;;;;;;5036820;28;20221;-73
2021/06/08 04:09:05;;;;;;;21.27;14.57;;;18.00;99.90;;;;;;5036848;28;20295;-73
2021/06/08 04:11:32;;;;;;;22.67;14.80;;;18.10;99.90;;;;;;5036217;28;20204;-73
2021/06/08 04:13:59;;;;;;;21.27;13.95;;;18.10;99.90;;;;;;5036568;28;20204;-73
2021/06/08 04:16:25;;;;;;;21.55;12.80;;;17.90;99.90;;;;;;5036498;28;20204;-73
2021/06/08 04:18:52;;;;;;;23.92;13.70;;;18.00;99.90;;;;;;5036546;28;20204;-73
2021/06/08 04:21:22;;;;;;;23.73;14.30;;;18.00;99.90;;;;;;5035975;28;20281;-73
2021/06/08 04:23:55;;;;;;;20.83;14.02;;;18.10;99.90;;;;;;5035355;28;20232;-73
2021/06/08 04:26:23;;;;;;;22.13;13.27;;;18.10;99.90;;;;;;5036145;28;20192;-73
2021/06/08 04:28:49;;;;;;;23.90;14.05;;;18.20;99.90;;;;;;5036361;28;20346;-73
2021/06/08 04:31:16;;;;;;;20.02;14.50;;;18.20;99.90;;;;;;5035553;28;20291;-73
2021/06/08 04:33:45;;;;;;;25.42;15.60;;;18.30;99.90;;;;;;5036816;28;20239;-73
2021/06/08 04:36:13;;;;;;;23.55;15.02;;;18.10;99.90;;;;;;5036359;28;20200;-73
2021/06/08 04:38:39;;;;;;;22.08;13.65;;;18.20;99.90;;;;;;5035677;28;20242;-73
2021/06/08 04:41:06;;;;;;;21.52;14.30;;;18.20;99.90;;;;;;5035746;28;20223;-73
2021/06/08 04:43:35;;;;;;;20.08;14.02;;;18.20;99.90;;;;;;5035952;28;20231;-73
2021/06/08 04:46:03;;;;;;;23.60;12.85;;;18.30;99.90;;;;;;5035957;28;20243;-73
2021/06/08 04:48:29;;;;;;;19.83;13.10;;;18.30;99.90;;;;;;5036075;28;20227;-73
2021/06/08 04:50:56;;;;;;;20.35;13.95;;;18.20;99.90;;;;;;5035895;28;20338;-73
2021/06/08 04:53:23;;;;;;;22.17;13.93;;;18.20;99.90;;;;;;5035690;28;20224;-73
2021/06/08 04:55:50;;;;;;;21.30;14.07;;;18.20;99.90;;;;;;5035601;28;20712;-73
2021/06/08 04:58:17;;;;;;;22.65;13.40;;;18.40;99.90;;;;;;5035458;28;20212;-73
2021/06/08 05:00:54;;;;;;;22.40;14.20;;;18.40;99.90;;;;;;5034998;28;20229;-73
2021/06/08 05:03:24;;;;;;;24.55;13.35;;;18.20;99.90;;;;;;5035121;28;20242;-73
2021/06/08 05:05:53;;;;;;;24.88;14.70;;;18.20;99.90;;;;;;5035049;28;20204;-73
2021/06/08 05:08:23;;;;;;;19.98;13.85;;;18.20;99.90;;;;;;5035296;28;20230;-74
2021/06/08 05:10:55;;;;;;;23.08;13.55;;;18.20;99.90;;;;;;5035055;28;20197;-73
2021/06/08 05:13:25;;;;;;;21.52;14.65;;;18.20;99.90;;;;;;5035124;28;20224;-74
2021/06/08 05:15:55;;;;;;;25.50;15.00;;;18.20;99.90;;;;;;5035662;28;20300;-73
2021/06/08 05:18:23;;;;;;;21.77;14.45;;;18.10;99.90;;;;;;5035189;28;20273;-73
2021/06/08 05:20:50;;;;;;;23.13;15.40;;;17.90;99.90;;;;;;5034964;28;20220;-73
2021/06/08 05:23:17;;;;;;;23.95;14.73;;;17.80;99.90;;;;;;5034994;28;20362;-73
2021/06/08 05:25:44;;;;;;;21.58;13.75;;;17.70;99.90;;;;;;5035323;28;20294;-73
2021/06/08 05:28:14;;;;;;;20.25;12.88;;;17.80;99.90;;;;;;5034926;28;20204;-73
2021/06/08 05:30:41;;;;;;;25.20;13.35;;;17.80;99.90;;;;;;5034791;28;20226;-72
2021/06/08 05:33:11;;;;;;;24.30;14.82;;;17.70;99.90;;;;;;5034932;28;20285;-73
2021/06/08 05:35:38;;;;;;;23.30;14.15;;;17.70;99.90;;;;;;5034496;28;20612;-73
2021/06/08 05:38:05;;;;;;;20.25;13.80;;;17.70;99.90;;;;;;5034877;28;20651;-73
2021/06/08 05:40:32;;;;;;;22.90;13.25;;;17.80;99.90;;;;;;5034590;28;20231;-72
2021/06/08 05:42:58;;;;;;;21.40;14.65;;;17.80;99.90;;;;;;5034569;28;20785;-73
2021/06/08 05:45:25;;;;;;;23.20;14.82;;;17.90;99.90;;;;;;5034465;28;20290;-73
2021/06/08 05:47:51;;;;;;;27.30;15.45;;;17.90;99.90;;;;;;5034235;28;20275;-73
2021/06/08 05:50:19;;;;;;;24.85;15.43;;;17.70;99.90;;;;;;5034381;28;20294;-72
2021/06/08 05:52:46;;;;;;;22.60;15.05;;;17.70;99.90;;;;;;5034435;28;20258;-73
2021/06/08 05:55:13;;;;;;;24.63;14.68;;;17.60;99.90;;;;;;5034373;28;20629;-73
2021/06/08 05:57:40;;;;;;;23.20;13.68;;;17.70;99.90;;;;;;5034345;28;20291;-73
2021/06/08 06:00:07;;;;;;;24.40;16.08;;;17.70;99.90;;;;;;5034112;28;20238;-72
2021/06/08 06:02:35;;;;;;;22.27;14.77;;;17.60;99.90;;;;;;5034068;28;20331;-73
2021/06/08 06:05:02;;;;;;;26.52;14.90;;;17.60;99.90;;;;;;5034998;28;20234;-73
2021/06/08 06:07:31;;;;;;;24.27;14.15;;;17.60;99.90;;;;;;5034498;28;20669;-73
2021/06/08 06:09:57;;;;;;;23.10;14.00;;;17.70;99.90;;;;;;5034409;28;20203;-72
2021/06/08 06:12:25;;;;;;;22.25;13.60;;;17.80;99.90;;;;;;5033899;28;20307;-73
2021/06/08 06:15:01;;;;;;;25.40;14.25;;;17.80;99.90;;;;;;5034039;28;20322;-73
2021/06/08 06:17:32;;;;;;;23.67;14.15;;;17.90;99.90;;;;;;5034355;28;20207;-73
2021/06/08 06:19:59;;;;;;;23.38;14.70;;;18.10;99.90;;;;;;5033956;28;20215;-72
2021/06/08 06:22:25;;;;;;;26.73;15.00;;;18.10;99.90;;;;;;5033970;28;20651;-73
2021/06/08 06:24:53;;;;;;;24.30;15.18;;;18.20;99.90;;;;;;5034106;28;20208;-73
2021/06/08 06:27:19;;;;;;;21.00;14.38;;;18.20;99.90;;;;;;5033847;28;20218;-73
2021/06/08 06:29:48;;;;;;;20.15;14.02;;;18.30;99.90;;;;;;5033587;28;20740;-73
2021/06/08 06:32:14;;;;;;;20.33;13.40;;;18.30;99.90;;;;;;5033371;28;20228;-73
2021/06/08 06:34:41;;;;;;;20.83;13.82;;;18.30;99.90;;;;;;5034467;28;20620;-73
2021/06/08 06:37:07;;;;;;;23.08;15.30;;;18.30;99.90;;;;;;5034069;28;20742;-73
2021/06/08 06:39:35;;;;;;;18.95;13.48;;;18.30;99.90;;;;;;5034592;28;20210;-73
2021/06/08 06:42:07;;;;;;;19.50;13.35;;;18.30;99.90;;;;;;5033647;28;20228;-73
2021/06/08 06:44:34;;;;;;;20.23;13.40;;;18.30;99.90;;;;;;5034271;28;20295;-74
2021/06/08 06:47:01;;;;;;;23.00;15.50;;;18.40;99.90;;;;;;5033694;28;20200;-73
2021/06/08 06:49:27;;;;;;;22.27;14.00;;;18.40;99.90;;;;;;5034117;28;20616;-73
2021/06/08 06:51:56;;;;;;;23.20;15.30;;;18.30;99.90;;;;;;5033204;28;20315;-73
2021/06/08 06:54:23;;;;;;;19.35;13.10;;;18.30;99.90;;;;;;5033757;28;20215;-73
2021/06/08 06:56:50;;;;;;;21.25;14.75;;;18.40;99.90;;;;;;5033585;28;20287;-73
2021/06/08 06:59:19;;;;;;;21.67;13.82;;;18.10;99.90;;;;;;5033869;28;20207;-73
2021/06/08 07:01:47;;;;;;;22.70;13.95;;;18.10;99.90;;;;;;5033268;28;20280;-73
2021/06/08 07:04:13;;;;;;;25.25;15.48;;;17.90;99.90;;;;;;5033249;28;20753;-73
2021/06/08 07:06:41;;;;;;;24.65;15.45;;;17.90;99.90;;;;;;5033560;28;20581;-73
2021/06/08 07:09:08;;;;;;;22.05;14.98;;;17.90;99.90;;;;;;5033630;28;20212;-73
2021/06/08 07:11:35;;;;;;;22.17;14.70;;;17.90;99.90;;;;;;5033759;28;20200;-73
2021/06/08 07:14:02;;;;;;;23.50;15.82;;;18.00;99.90;;;;;;5033670;28;20200;-73
2021/06/08 07:16:30;;;;;;;23.30;15.23;;;18.10;99.90;;;;;;5033724;28;20680;-73
2021/06/08 07:18:57;;;;;;;23.98;14.65;;;18.20;99.90;;;;;;5033129;28;20239;-73
2021/06/08 07:21:25;;;;;;;23.45;13.57;;;18.20;99.90;;;;;;5032992;28;20314;-73
2021/06/08 07:23:54;;;;;;;21.67;15.82;;;18.20;99.90;;;;;;5033325;28;20229;-73
2021/06/08 07:26:21;;;;;;;24.17;14.48;;;18.20;99.90;;;;;;5033493;28;20254;-73
2021/06/08 07:28:49;;;;;;;22.13;14.52;;;18.20;99.90;;;;;;5033579;28;20244;-73
2021/06/08 07:31:24;;;;;;;30.08;15.82;;;18.30;99.90;;;;;;5033140;28;20299;-73
2021/06/08 07:34:01;;;;;;;22.40;15.10;;;18.30;99.90;;;;;;5033674;28;20253;-73
2021/06/08 07:36:34;;;;;;;25.25;14.57;;;18.20;99.90;;;;;;5033514;28;20551;-73
2021/06/08 07:39:04;;;;;;;24.25;16.25;;;18.20;99.90;;;;;;5033630;28;20208;-73
2021/06/08 07:41:35;;;;;;;23.58;15.93;;;18.30;99.90;;;;;;5032669;28;20227;-73
2021/06/08 07:44:05;;;;;;;27.90;15.60;;;18.30;99.90;;;;;;5032995;28;20239;-73
2021/06/08 07:46:32;;;;;;;25.75;16.55;;;18.30;99.90;;;;;;5033129;28;20296;-73
2021/06/08 07:49:00;;;;;;;23.40;15.13;;;18.30;99.90;;;;;;5033485;28;20295;-74
2021/06/08 07:51:29;;;;;;;30.55;17.48;;;18.40;99.90;;;;;;5033147;28;20261;-73
2021/06/08 07:53:56;;;;;;;25.42;15.73;;;18.60;99.90;;;;;;5033998;28;20211;-74
2021/06/08 07:56:22;;;;;;;20.65;13.77;;;18.80;99.90;;;;;;5028062;28;20208;-76
2021/06/08 07:58:49;;;;;;;24.38;15.75;;;18.80;99.90;;;;;;5025031;28;20194;-75
2021/06/08 08:01:18;;;;;;;24.73;15.60;;;18.70;99.90;;;;;;5025596;28;20690;-75
2021/06/08 08:03:45;;;;;;;22.23;14.30;;;18.80;99.90;;;;;;5025416;28;20213;-76
2021/06/08 08:06:15;;;;;;;24.83;15.05;;;18.80;99.90;;;;;;5024492;28;20193;-77
2021/06/08 08:08:43;;;;;;;24.53;16.23;;;18.80;99.90;;;;;;5024393;28;20287;-76
2021/06/08 08:11:11;;;;;;;21.73;15.00;;;18.90;99.90;;;;;;5023296;28;20448;-76
2021/06/08 08:13:39;;;;;;;22.67;15.65;;;18.90;99.90;;;;;;5024155;28;20456;-76
2021/06/08 08:16:07;;;;;;;26.93;16.50;;;18.70;99.90;;;;;;5024013;28;20208;-77
2021/06/08 08:18:35;;;;;;;22.67;15.43;;;18.80;99.90;;;;;;5025430;28;20987;-76
2021/06/08 08:21:01;;;;;;;21.60;14.40;;;18.90;99.90;;;;;;5024873;28;20499;-76
2021/06/08 08:23:31;;;;;;;23.70;15.55;;;19.00;99.90;;;;;;5026015;28;20463;-76
2021/06/08 08:25:59;;;;;;;24.00;15.70;;;19.10;99.90;;;;;;5027175;28;20247;-76
2021/06/08 08:28:26;;;;;;;24.38;16.02;;;19.10;99.90;;;;;;5026796;28;20494;-75
2021/06/08 08:30:52;;;;;;;25.08;15.48;;;19.00;99.90;;;;;;5016060;28;20206;-74
2021/06/08 08:33:19;;;;;;;21.87;15.37;;;19.10;99.90;;;;;;5016118;28;20316;-74
2021/06/08 08:35:45;;;;;;;26.17;17.07;;;19.20;99.90;;;;;;5016223;28;20463;-73
2021/06/08 08:38:13;;;;;;;21.27;14.53;;;19.30;99.90;;;;;;5016164;28;20446;-74
2021/06/08 08:40:41;;;;;;;24.10;15.88;;;19.30;99.90;;;;;;5016092;28;20437;-72
2021/06/08 08:43:08;;;;;;;23.88;16.25;;;19.30;99.90;;;;;;5016288;28;20235;-73
2021/06/08 08:45:35;;;;;;;22.92;15.15;;;19.30;99.90;;;;;;5016605;28;20214;-73
2021/06/08 08:48:01;;;;;;;23.13;16.48;;;19.40;99.90;;;;;;5016343;28;20761;-73
2021/06/08 08:50:28;;;;;;;27.23;17.90;;;19.20;99.90;;;;;;5015805;28;20201;-73
2021/06/08 08:52:59;;;;;;;24.45;14.75;;;19.20;99.90;;;;;;5015819;28;20233;-73
2021/06/08 08:55:27;;;;;;;27.42;16.48;;;19.10;99.90;;;;;;5016106;28;20635;-73
2021/06/08 08:57:56;;;;;;;28.43;16.93;;;19.10;99.90;;;;;;5015943;28;20631;-73
2021/06/08 09:00:25;;;;;;;27.30;17.77;;;19.20;99.90;;;;;;5015255;28;20447;-73
2021/06/08 09:02:54;;;;;;;21.10;15.40;;;19.10;99.90;;;;;;5015604;28;20858;-73
2021/06/08 09:05:21;;;;;;;22.83;15.27;;;19.10;99.90;;;;;;5015787;28;20481;-73
2021/06/08 09:07:47;;;;;;;25.13;16.63;;;19.20;99.90;;;;;;5015824;28;20847;-73
2021/06/08 09:10:13;;;;;;;29.17;16.63;;;19.30;99.90;;;;;;5015406;28;20901;-73
2021/06/08 09:12:40;;;;;;;28.60;16.80;;;19.40;99.90;;;;;;5015342;28;20556;-73
2021/06/08 09:15:09;;;;;;;28.10;16.17;;;19.50;99.90;;;;;;5016191;28;20449;-73
2021/06/08 09:17:38;;;;;;;26.83;17.30;;;19.40;99.90;;;;;;5015890;28;20535;-73
2021/06/08 09:20:06;;;;;;;26.40;16.80;;;19.50;99.90;;;;;;5015178;28;20450;-73
2021/06/08 09:22:52;;;;;;;29.93;18.20;;;19.50;99.90;;;;;;5015193;28;20488;-73
2021/06/08 09:25:40;;;;;;;25.17;16.93;;;19.50;99.90;;;;;;5015915;28;20555;-73
2021/06/08 09:28:22;;;;;;;22.90;15.73;;;19.60;99.90;;;;;;5015285;28;20447;-74
2021/06/08 09:30:59;;;;;;;24.17;15.77;;;19.80;99.90;;;;;;5014884;28;20542;-73
2021/06/08 09:33:27;;;;;;;25.67;16.90;;;20.10;99.90;;;;;;5015717;28;20476;-74
2021/06/08 09:35:55;;;;;;;24.43;16.17;;;20.40;99.90;;;;;;5015194;28;20459;-74
2021/06/08 09:38:33;;;;;;;24.90;16.70;;;20.60;99.90;;;;;;5015468;28;20594;-74
2021/06/08 09:41:21;;;;;;;25.60;16.83;;;20.70;99.90;;;;;;5014835;28;21018;-73
2021/06/08 09:43:52;;;;;;;25.10;16.50;;;20.80;99.90;;;;;;5015479;28;20905;-74
2021/06/08 09:46:20;;;;;;;26.90;17.23;;;20.90;99.90;;;;;;5015264;28;20918;-74
2021/06/08 09:48:51;;;;;;;27.57;18.10;;;20.80;99.90;;;;;;5015339;28;21019;-73
2021/06/08 09:51:18;;;;;;;27.10;17.53;;;21.00;99.90;;;;;;5014805;28;20518;-73
2021/06/08 09:53:44;;;;;;;25.60;17.57;;;20.90;99.90;;;;;;5014770;28;20561;-74
2021/06/08 09:56:12;;;;;;;25.00;16.90;;;21.00;99.90;;;;;;5015175;28;20535;-74
2021/06/08 09:58:44;;;;;;;26.47;16.53;;;21.30;99.90;;;;;;5014980;28;20447;-74
2021/06/08 10:01:17;;;;;;;25.07;16.07;;;21.50;99.90;;;;;;5014424;28;20517;-73
2021/06/08 10:03:47;;;;;;;24.53;17.30;;;21.80;99.90;;;;;;5014766;28;20475;-74
2021/06/08 10:06:15;;;;;;;25.03;17.10;;;21.80;99.90;;;;;;5014461;28;20454;-74
2021/06/08 10:08:56;;;;;;;24.40;17.40;;;21.80;99.90;;;;;;5014770;28;20447;-74
2021/06/08 10:11:24;;;;;;;23.60;17.00;;;21.80;99.90;;;;;;5014185;28;20447;-73
2021/06/08 10:13:58;;;;;;;27.60;18.17;;;21.90;99.90;;;;;;5014319;28;20859;-74
2021/06/08 10:16:27;;;;;;;24.33;17.30;;;21.90;99.90;;;;;;5014545;28;20506;-74
2021/06/08 10:18:55;;;;;;;22.70;16.23;;;22.00;99.90;;;;;;5014147;28;20972;-74
2021/06/08 10:21:35;;;;;;;24.53;16.50;;;21.80;99.90;;;;;;5013720;28;20523;-73
2021/06/08 10:24:05;;;;;;;22.23;16.60;;;21.70;99.90;;;;;;5015062;28;20439;-74
2021/06/08 10:26:34;;;;;;;25.60;17.20;;;21.80;99.90;;;;;;5014322;28;20513;-74
2021/06/08 10:29:05;;;;;;;22.03;16.77;;;22.00;99.90;;;;;;5014385;28;20491;-74
2021/06/08 10:31:32;;;;;;;23.77;16.77;;;22.20;99.90;;;;;;5013888;28;20452;-74
2021/06/08 10:34:00;;;;;;;23.60;17.90;;;22.30;99.90;;;;;;5014769;28;20436;-74
2021/06/08 10:36:27;;;;;;;27.67;17.93;;;22.30;99.90;;;;;;5014594;28;20470;-74
2021/06/08 10:38:53;;;;;;;25.23;17.63;;;22.40;99.90;;;;;;5014475;28;20439;-74
2021/06/08 10:41:20;;;;;;;24.03;16.90;;;22.10;99.90;;;;;;5014155;28;20618;-73
2021/06/08 10:43:46;;;;;;;23.07;16.57;;;22.00;99.90;;;;;;5014338;28;20506;-74
2021/06/08 10:46:33;;;;;;;22.70;15.40;;;21.90;99.90;;;;;;5014451;28;20785;-74
2021/06/08 10:49:04;;;;;;;23.53;16.57;;;22.10;99.90;;;;;;5014640;28;20443;-74
2021/06/08 10:51:33;;;;;;;25.43;16.80;;;21.90;99.90;;;;;;5014155;28;20482;-73
2021/06/08 10:54:02;;;;;;;23.90;16.70;;;21.90;99.90;;;;;;5014522;28;20806;-74
2021/06/08 10:56:30;;;;;;;23.47;17.30;;;21.90;99.90;;;;;;5014595;28;20439;-73
2021/06/08 10:58:58;;;;;;;25.63;16.20;;;21.90;99.90;;;;;;5014351;28;20446;-73
2021/06/08 11:01:47;;;;;;;24.40;17.17;;;21.70;99.90;;;;;;5013842;28;20479;-73
2021/06/08 11:04:17;;;;;;;23.67;16.20;;;21.60;99.90;;;;;;5014456;28;20440;-73
2021/06/08 11:06:50;;;;;;;22.57;15.80;;;21.70;99.90;;;;;;5014734;28;20451;-74
2021/06/08 11:09:18;;;;;;;22.43;16.07;;;21.90;99.90;;;;;;5014456;28;20518;-74
2021/06/08 11:11:50;;;;;;;21.10;15.33;;;22.10;99.90;;;;;;5013949;28;20450;-73
2021/06/08 11:15:02;;;;;;;22.60;16.50;;;22.30;99.90;;;;;;5014212;28;20514;-74
2021/06/08 11:17:33;;;;;;;22.57;16.60;;;22.30;99.90;;;;;;5014832;28;20458;-74
2021/06/08 11:20:03;;;;;;;21.13;16.60;;;22.30;99.90;;;;;;5014874;28;20483;-73
2021/06/08 11:23:05;;;;;;;24.43;17.47;;;22.20;99.90;;;;;;5014929;28;20487;-74
2021/06/08 11:25:43;;;;;;;21.33;16.17;;;22.00;99.90;;;;;;4954432;29;20442;-73
2021/06/08 11:28:13;;;;;;;24.60;16.47;;;21.80;99.90;;;;;;5007221;28;20458;-74
2021/06/08 11:30:41;;;;;;;22.90;15.73;;;21.80;99.90;;;;;;5014017;28;20447;-74
2021/06/08 11:33:27;;;;;;;23.70;16.83;;;21.70;99.90;;;;;;5016042;28;20515;-74
2021/06/08 11:35:55;;;;;;;22.33;16.70;;;21.80;99.90;;;;;;5018422;28;20475;-74
2021/06/08 11:38:29;;;;;;;22.77;17.10;;;21.70;99.90;;;;;;5017980;28;20529;-74
2021/06/08 11:41:08;;;;;;;20.33;16.27;;;21.60;99.90;;;;;;5017450;28;20889;-73
2021/06/08 11:44:00;;;;;;;23.87;16.90;;;21.50;99.90;;;;;;5017582;28;20506;-73
2021/06/08 11:46:54;;;;;;;23.80;17.13;;;21.30;99.90;;;;;;5017394;28;20483;-74
2021/06/08 11:49:23;;;;;;;21.97;16.93;;;21.20;99.90;;;;;;5017728;28;20530;-74
2021/06/08 11:52:18;;;;;;;24.20;16.70;;;21.30;99.90;;;;;;5017215;28;20498;-74
2021/06/08 11:54:48;;;;;;;22.53;17.07;;;21.40;99.90;;;;;;5017852;28;20435;-74
2021/06/08 11:57:33;;;;;;;22.40;15.60;;;21.70;99.90;;;;;;5018198;28;20444;-74
2021/06/08 12:00:03;;;;;;;20.27;15.10;;;21.80;99.90;;;;;;5017350;28;20804;-73
2021/06/08 12:02:32;;;;;;;21.70;16.00;;;21.90;99.90;;;;;;5016982;28;20490;-74
2021/06/08 12:05:11;;;;;;;22.97;17.30;;;21.90;99.90;;;;;;5017406;28;20448;-74
2021/06/08 12:07:47;;;;;;;23.93;17.00;;;22.00;99.90;;;;;;5017489;28;20972;-74
2021/06/08 12:10:17;;;;;;;20.30;15.50;;;22.10;99.90;;;;;;5017716;28;20960;-73
2021/06/08 12:12:48;;;;;;;22.10;16.10;;;22.20;99.90;;;;;;5017500;28;20598;-73
2021/06/08 12:15:23;;;;;;;25.03;17.97;;;22.40;99.90;;;;;;5017181;28;20447;-73
2021/06/08 12:18:01;;;;;;;22.80;16.63;;;22.50;99.90;;;;;;5017155;28;20531;-74
2021/06/08 12:20:28;;;;;;;25.77;17.47;;;22.50;99.90;;;;;;5016986;28;20497;-73
2021/06/08 12:22:55;;;;;;;20.90;14.90;;;22.50;99.90;;;;;;5017302;28;20487;-74
2021/06/08 12:25:22;;;;;;;20.90;15.73;;;22.40;99.90;;;;;;5017476;28;20559;-74
2021/06/08 12:27:49;;;;;;;23.13;16.50;;;22.50;99.90;;;;;;5016882;28;20536;-74
2021/06/08 12:30:20;;;;;;;19.53;14.83;;;22.70;99.90;;;;;;5017003;28;20783;-73
2021/06/08 12:32:52;;;;;;;23.03;16.10;;;22.70;99.90;;;;;;5016380;28;20482;-74
2021/06/08 12:35:25;;;;;;;22.83;16.17;;;22.80;99.90;;;;;;5016879;28;20780;-73
2021/06/08 12:37:52;;;;;;;21.30;15.93;;;23.00;99.90;;;;;;5017247;28;20444;-74
2021/06/08 12:40:21;;;;;;;19.43;15.23;;;23.00;99.90;;;;;;5016686;28;20457;-73